Wallace, ID

3:09 PM PDT on July 31, 2014 (GMT -0700)
MesoWest Lookout Pass I-90 MP 0.2 MT US MT DOT (MMTLPS) Elev 4724 ft | 47.45 °N, 115.70 °W | Change Station

Current weather conditions updated 54 minutes ago

Clear
Clear
84 °F
Feels Like 81 °F
N
3
Wind Variable Wind from NNE
Gusts 11.0 mph

Today is forecast to be nearly the same temperature as yesterday.

Today
High -- | Low -- °F
--% Chance of Precip.
Yesterday
High -- | Low -- °F
Precip. -- in
5:20 AM 8:18 PM
Waxing Crescent, 21% visible
Pressure 30.00 in
Visibility 10.0 miles
Clouds Clear
Heat Index 81 °F
Dew Point 37 °F
Humidity 19%
Rainfall 0.00 in
Snow Depth 0 in , 1 in
UV 8 out of 12
Pollen 6.50 out of 12
Air Quality Not available.
Flu Activity Not available.
METAR KCOE 312155Z AUTO 22005KT 10SM CLR 36/08 A3000 RMK AO1

More Conditions Fewer Conditions

Pressure 30.00 in
Visibility 10.0 miles
Clouds Clear
Heat Index 81 °F
Dew Point 37 °F
Humidity 19%
Rainfall 0.00 in
Snow Depth 0 in , 1 in
UV 8 out of 12
Pollen 6.50 out of 12
Air Quality Not available.
Flu Activity Not available.
METAR KCOE 312155Z AUTO 22005KT 10SM CLR 36/08 A3000 RMK AO1

More Conditions Fewer Conditions

10-Day Weather Forecast

Almanac

Astronomy

Jul. 31, 2014 Rise Set
Actual Time 5:20 AM PDT 8:18 PM PDT
Civil Twilight 4:44 AM PDT 8:54 PM PDT
Nautical Twilight 3:58 AM PDT 9:40 PM PDT
Astronomical Twilight 3:02 AM PDT 10:36 PM PDT
Moon 10:14 AM PDT 10:09 PM PDT
Length of Visible Light 16h 09m
Length of Day
14h 57m
Tomorrow will be 2m 38s shorter.
Waxing Crescent, 21% of the Moon is Illuminated
Today
Waxing Crescent
Aug 3
First Quarter
Aug 10
Full
Aug 17
Last Quarter
Aug 25
New

Today's Extremes

State Highs State Lows

Community

WunderPhotos

Upload Photos

1,739,457 photos uploaded!

Nearby

Snow Depth

Station Depth Elevation
Sunset 0 in 5540 ft
Humboldt Gulch 1 in 4250 ft
Schweitzer Basin 0 in 6090 ft
Savage Pass 0 in 6170 ft
Hidden Lake 0 in 5040 ft

Earthquake Activity

City Distance Mag. Time & Date
No recent earthquake activity has been reported nearby.
Minimum magnitude displayed is 2.5.

Coastal Water Temperatures

Place Temperature
No Stations Reporting

Nearby Weather Stations

Station Location Temp. Heat Index Dew Point Humidity Wind Precip. Elev Updated Type
MesoWest Lookout Pass I-90 MP 0.2 , Mullan, ID 84 °F 81 °F 37 °F 19% NNE  at  3 mph 0.00 in / hr 4724 ft 2:15 PM PDT MADIS
ITD Lookout Pass ID , Mullan, ID 85 °F 82 °F 35 °F 17% SSE  at  4 mph 0.00 in / hr 4525 ft 2:00 PM PDT MADIS
ITD Wallace Viaduct ID , Wallace, ID 94 °F 90 °F 40 °F 15% SSW  at  4 mph 0.00 in / hr 2791 ft 2:00 PM PDT MADIS
Diamond Street, Kellogg, ID 97.2 °F 93 °F 40 °F 14% South  at  3.0 mph 0.00 in / hr 2280 ft 3:08 PM PDT Normal
ITD Cataldo ID , Kingston, ID 95 °F 91 °F 43 °F 16% WSW  at  7 mph 0.00 in / hr 2174 ft 2:00 PM PDT MADIS

Show More Stations Show Fewer Stations